Aviation Digital Data Service (ADDS)

Output produced by METARs form (0218 UTC 03 September 2014)
found at http://www.aviationweather.gov/adds/metars/
 
KUNV 030155Z AUTO 00000KT 10SM SCT065 SCT100 19/18 A2995 RMK AO2 T01870183
KUNV 030053Z 28004KT 10SM SCT080 SCT110 21/19 A2993
KUNV 022353Z 27006KT 10SM SCT030 BKN045 22/20 A2992
KUNV 022253Z 26010KT 3SM RA SCT025 BKN060 0VC070 23/21 A2990
KUNV 022153Z 25008KT 10SM SCT025 BKN060 23/22 A2983 RMK TSE 2152
KUNV 022130Z COR 24005KT 3SM TSRA SCT025 BKN040 OVC050 25/22 A2984 RMK TSB 2130
KUNV 022053Z 19008KT 10SM SCT045 SCT110 27/21 A2984 RMK LTG DSNT SW-NW
KUNV 021953Z 19008KT 10SM SCT039 SCT050 SCT060 27/21 A2988
KUNV 021853Z 21012KT 10SM SCT037 BKN046 BKN055 28/20 A2990
KUNV 021753Z 22010KT 10SM BKN039 BKN050 OVC060 27/20 A2993
KUNV 021653Z 24009KT 10SM SCT050 28/19 A2996
KUNV 021553Z 25009KT 10SM SCT036 27/20 A2997
KUNV 021453Z 27011KT 10SM SCT040 26/20 A2999
KUNV 021353Z 27008KT 8SM SCT024 BKN040 24/21 A2999
KUNV 021253Z 25004KT 8SM BKN035 OVC045 24/21 A2998
KUNV 021153Z 21003KT 8SM SCT020 SCT070 22/20 A2998
KUNV 021053Z 23006KT 8SM BKN020 23/20 A2998
KUNV 020935Z AUTO 19003KT 10SM OVC021 22/20 A2996 RMK AO2 T02170200
KUNV 020915Z AUTO 20004KT 10SM BKN021 21/20 A2996 RMK AO2 T02130197
KUNV 020855Z AUTO 19005KT 10SM SCT021 SCT060 SCT070 21/20 A2995 RMK AO2 T02130197
KUNV 020835Z AUTO 23004KT 10SM CLR 22/20 A2995 RMK AO2 T02160197
KUNV 020815Z AUTO 21007KT 10SM CLR 22/20 A2995 RMK AO2 T02170197
KUNV 020755Z AUTO 20005KT 10SM CLR 21/20 A2996 RMK AO2 T02110197
KUNV 020735Z AUTO 20004KT 10SM SCT100 21/20 A2996 RMK AO2 T02080196
KUNV 020715Z AUTO 20003KT 10SM SCT100 21/20 A2996 RMK AO2 T02100196
KUNV 020655Z AUTO 19003KT 10SM BKN100 21/20 A2996 RMK AO2 T02080197
KUNV 020635Z AUTO 00000KT 10SM SCT100 21/20 A2996 RMK AO2 T02100198
KUNV 020615Z AUTO 19003KT 10SM SCT100 21/20 A2997 RMK AO2 T02110199
KUNV 020555Z AUTO 20003KT 10SM CLR 21/20 A2997 RMK AO2 T02100200 10245 20210
KUNV 020535Z AUTO 00000KT 10SM SCT095 22/20 A2997 RMK AO2 T02150201
KUNV 020515Z AUTO 23006KT 10SM CLR 21/20 A2997 RMK AO2 T02130201
KUNV 020455Z AUTO 23006KT 10SM SCT070 SCT100 BKN120 22/20 A2997 RMK AO2 T02160203
KUNV 020435Z AUTO 25006KT 7SM SCT070 SCT100 BKN120 22/21 A2998 RMK AO2 T02190208
KUNV 020415Z AUTO 00000KT 10SM SCT050 SCT070 SCT080 22/21 A2998 RMK AO2 T02220207
KUNV 020355Z AUTO 00000KT 7SM SCT055 SCT065 BKN080 22/21 A2998 RMK AO2 T02150205 402660196
KUNV 020335Z AUTO 22003KT 7SM SCT055 BKN080 22/21 A2999 RMK AO2 LTG DSNT NW T02160207
KUNV 020315Z AUTO 23005KT 10SM SCT055 SCT070 SCT090 22/21 A2999 RMK AO2 T02240210
KUNV 020255Z AUTO 23003KT 10SM CLR 22/21 A2999 RMK AO2 T02210210
KUNV 020235Z AUTO 00000KT 10SM SCT070 SCT085 23/22 A2999 RMK AO2 T02260216
KUNV 020215Z AUTO 00000KT 10SM SCT070 OVC085 23/22 A2999 RMK AO2 T02330217
KUNV 020155Z AUTO 24003KT 10SM BKN085 23/22 A2999 RMK AO2 T02330216
KUNV 020053Z 25005KT 10SM SCT070 BKN085 24/22 A2998
KUNV 012353Z 22004KT 10SM BKN110 25/22 A2996
KUNV 012253Z 21005KT 10SM SCT060 SCT110 26/22 A2996
KUNV 012153Z 19003KT 10SM FEW020 SCT060 SCT085 27/22 A2997
KUNV 012053Z 20003KT 10SM SCT020 SCT027 BKN045 26/22 A2997
KUNV 011953Z 21003KT 8SM SCT010 BKN030 25/22 A2999
KUNV 011853Z 21006KT 5SM -RA BKN030 OVC035 23/21 A3001
KUNV 011753Z 00000KT 8SM BKN032 OVC050 25/21 A3002
KUNV 011653Z 24005KT 8SM BKN040 OVC060 24/21 A3003
KUNV 011553Z 23006KT 7SM BKN032 OVC038 23/20 A3005
KUNV 011453Z 00000KT 10SM BKN020 BKN037 OVC060 24/19 A3004